Kelvington, Canada
Current Conditions -  °F | °C
As of 8:00 AM on Sunday 23 Nov 2014 (Local Time) from CYQV Reporting Station
Overcast Overcast  
Wind Chill: -10°   Ceiling: 4300
Heat Index:   Visibility: 9mi
Dew Point:   Wind: 18mph
Humidity: 79%   Direction: 350°N
Pressure: 29.59"   Gusts: 28mph
Location:  52.17°N, 103.52°W
Report Text: CYQV 231400Z AUTO 35016G24KT 9SM OVC043 M13/M16 A2959 RMK SLP057
Loading
Personal Weather Stations






























Interactive Weather Map New forecast layout! Learn more

10-Day Weather Forecast

Advertisements
Track Severe Weather on mobile